Terminal Aerodrome Forecast
Issued by NWS

Home | Current Version | Previous Version | Text Only | Print | Product List | Glossary On
Versions: 1 2 3 4 5 6 7 8 9 10 11 12 13 14 15 16 17 18 19 20 21 22 23 24 25 26 27 28 29 30 31 32 33 34 35 36 37 38
987
FTUS41 KBOX 242333 AAB
TAFFMH
TAF AMD
KFMH 242333Z 2500/2524 22014G24KT P6SM OVC080
     FM250200 23013G22KT P6SM OVC040 WS020/24040KT
     FM250700 24010G17KT P6SM BKN040
     FM251000 26006KT P6SM OVC008
     FM251300 29005KT P6SM VCSH OVC010
     FM251500 35006KT P6SM VCSH OVC020
     FM251800 03007KT P6SM VCSH OVC025
     FM252200 04007KT P6SM VCSH OVC035=

USA.gov is the U.S. government's official web portal to all federal, state and local government web resources and services.